Дата Время Давление Темп. Влажн. Скор.ветра Напр.ветра Макс.ветер Осадки/час Осадки
18.09.19 12:00 732.8 10.3 75.9 1.7 185 3.5 0 0
18.09.19 11:00 732.4 10.8 76.2 1.8 181 3.5 0 0
18.09.19 10:00 732.9 9.5 80.7 1.2 197 3.1 0 0
18.09.19 09:00 732.7 8.6 82.5 1.7 209 3.5 0 0
18.09.19 08:00 732.7 7 90.8 1.7 184 3.9 0 0
18.09.19 07:00 733 6 92.8 2.4 198 4.2 0 0
18.09.19 06:00 733.1 6.2 92.1 2.1 195 3.3 0 0
18.09.19 05:00 733.3 7.4 89.9 1.5 202 3.5 0 0
18.09.19 04:00 733.4 7.8 89.4 1.8 193 3.9 0 0
18.09.19 03:00 733.5 7.9 89.4 1.8 193 3.2 0 0
18.09.19 02:00 733.7 7.7 89.1 1.2 245 3.2 0 0
18.09.19 01:00 733.7 7.5 88.8 1.7 190 3.4 0 0
18.09.19 00:00 733.9 7.7 86.4 1.5 212 3.1 0 0
17.09.19 23:00 734 7.9 84.8 1.6 207 3.7 0 0
17.09.19 22:00 734.1 8.6 81.1 1.9 217 3.9 0 0
17.09.19 21:00 734 8.9 78.2 1.7 223 3.6 0 0
17.09.19 20:00 733.9 9.9 73.5 1.5 216 4.6 0 0
17.09.19 19:00 733.6 11 68.9 1.8 240 6.7 0 0
17.09.19 18:00 733.3 12.2 65.6 1.5 223 5 0 0
17.09.19 17:00 733.3 13.2 61.8 2 240 7.3 0 0
17.09.19 16:00 733 13.1 61.9 1.9 265 6.7 0 0
17.09.19 15:00 732.7 13.2 62.4 1.9 288 6.4 0 0
17.09.19 14:00 733 12.7 71.3 1.8 262 5.8 0 0
17.09.19 13:00 733.5 12.6 66.6 1.5 247 6.4 0 0